sensor_id;sensor_type;location;lat;lon;timestamp;P1;durP1;ratioP1;P2;durP2;ratioP2
15614;SDS011;7907;51.368;6.730;2022-07-01T00:02:25;7.43;;;4.80;;
15614;SDS011;7907;51.368;6.730;2022-07-01T00:04:57;7.07;;;4.03;;
15614;SDS011;7907;51.368;6.730;2022-07-01T00:07:24;5.03;;;3.95;;
15614;SDS011;7907;51.368;6.730;2022-07-01T00:10:02;7.53;;;5.38;;
15614;SDS011;7907;51.368;6.730;2022-07-01T00:12:30;5.25;;;3.88;;
15614;SDS011;7907;51.368;6.730;2022-07-01T00:15:02;6.00;;;4.03;;
15614;SDS011;7907;51.368;6.730;2022-07-01T00:17:34;4.57;;;3.58;;
15614;SDS011;7907;51.368;6.730;2022-07-01T00:20:01;4.47;;;3.40;;
15614;SDS011;7907;51.368;6.730;2022-07-01T00:22:32;5.53;;;3.58;;
15614;SDS011;7907;51.368;6.730;2022-07-01T00:25:00;6.20;;;3.72;;
15614;SDS011;7907;51.368;6.730;2022-07-01T00:27:28;9.05;;;4.80;;
15614;SDS011;7907;51.368;6.730;2022-07-01T00:29:56;6.10;;;4.20;;
15614;SDS011;7907;51.368;6.730;2022-07-01T00:32:23;6.03;;;4.65;;
15614;SDS011;7907;51.368;6.730;2022-07-01T00:34:52;3.83;;;3.13;;
15614;SDS011;7907;51.368;6.730;2022-07-01T00:37:19;5.53;;;4.15;;
15614;SDS011;7907;51.368;6.730;2022-07-01T00:39:47;6.93;;;3.88;;
15614;SDS011;7907;51.368;6.730;2022-07-01T00:42:14;6.50;;;3.33;;
15614;SDS011;7907;51.368;6.730;2022-07-01T00:44:48;6.43;;;4.30;;
15614;SDS011;7907;51.368;6.730;2022-07-01T00:47:24;5.90;;;3.30;;
15614;SDS011;7907;51.368;6.730;2022-07-01T00:49:53;5.82;;;3.75;;
15614;SDS011;7907;51.368;6.730;2022-07-01T00:52:21;5.75;;;4.07;;
15614;SDS011;7907;51.368;6.730;2022-07-01T00:54:51;5.17;;;3.90;;
15614;SDS011;7907;51.368;6.730;2022-07-01T00:57:20;5.13;;;3.70;;
15614;SDS011;7907;51.368;6.730;2022-07-01T00:59:47;5.90;;;4.35;;
15614;SDS011;7907;51.368;6.730;2022-07-01T01:02:14;6.07;;;3.80;;
15614;SDS011;7907;51.368;6.730;2022-07-01T01:04:41;4.60;;;3.30;;
15614;SDS011;7907;51.368;6.730;2022-07-01T01:07:10;4.20;;;2.58;;
15614;SDS011;7907;51.368;6.730;2022-07-01T01:09:42;4.90;;;3.75;;
15614;SDS011;7907;51.368;6.730;2022-07-01T01:12:11;6.32;;;2.75;;
15614;SDS011;7907;51.368;6.730;2022-07-01T01:14:43;5.43;;;3.30;;
15614;SDS011;7907;51.368;6.730;2022-07-01T01:17:10;2.97;;;2.67;;
15614;SDS011;7907;51.368;6.730;2022-07-01T01:19:38;3.42;;;2.42;;
15614;SDS011;7907;51.368;6.730;2022-07-01T01:22:08;6.28;;;3.05;;
15614;SDS011;7907;51.368;6.730;2022-07-01T01:24:36;2.92;;;2.25;;
15614;SDS011;7907;51.368;6.730;2022-07-01T01:27:04;3.00;;;1.98;;
15614;SDS011;7907;51.368;6.730;2022-07-01T01:29:35;3.33;;;2.60;;
15614;SDS011;7907;51.368;6.730;2022-07-01T01:32:06;2.33;;;2.08;;
15614;SDS011;7907;51.368;6.730;2022-07-01T01:34:34;4.97;;;2.17;;
15614;SDS011;7907;51.368;6.730;2022-07-01T01:37:03;4.43;;;2.13;;
15614;SDS011;7907;51.368;6.730;2022-07-01T01:39:32;3.63;;;2.80;;
15614;SDS011;7907;51.368;6.730;2022-07-01T01:42:01;4.93;;;2.58;;
15614;SDS011;7907;51.368;6.730;2022-07-01T01:44:29;3.20;;;2.40;;
15614;SDS011;7907;51.368;6.730;2022-07-01T01:46:57;5.18;;;2.72;;
15614;SDS011;7907;51.368;6.730;2022-07-01T01:49:25;2.90;;;2.03;;
15614;SDS011;7907;51.368;6.730;2022-07-01T01:51:52;5.18;;;2.95;;
15614;SDS011;7907;51.368;6.730;2022-07-01T01:54:19;3.55;;;2.45;;
15614;SDS011;7907;51.368;6.730;2022-07-01T01:56:48;7.53;;;3.17;;
15614;SDS011;7907;51.368;6.730;2022-07-01T01:59:15;4.07;;;2.88;;
15614;SDS011;7907;51.368;6.730;2022-07-01T02:01:42;3.95;;;2.78;;
15614;SDS011;7907;51.368;6.730;2022-07-01T02:04:09;5.50;;;3.03;;
15614;SDS011;7907;51.368;6.730;2022-07-01T02:06:36;4.30;;;2.95;;
15614;SDS011;7907;51.368;6.730;2022-07-01T02:09:07;4.10;;;2.97;;
15614;SDS011;7907;51.368;6.730;2022-07-01T02:11:35;6.33;;;3.10;;
15614;SDS011;7907;51.368;6.730;2022-07-01T02:14:03;5.20;;;2.83;;
15614;SDS011;7907;51.368;6.730;2022-07-01T02:16:30;5.15;;;3.30;;
15614;SDS011;7907;51.368;6.730;2022-07-01T02:18:57;5.13;;;3.35;;
15614;SDS011;7907;51.368;6.730;2022-07-01T02:21:25;4.88;;;2.53;;
15614;SDS011;7907;51.368;6.730;2022-07-01T02:23:53;3.80;;;2.72;;
15614;SDS011;7907;51.368;6.730;2022-07-01T02:26:20;4.32;;;2.67;;
15614;SDS011;7907;51.368;6.730;2022-07-01T02:28:47;2.97;;;2.20;;
15614;SDS011;7907;51.368;6.730;2022-07-01T02:31:16;5.07;;;2.55;;
15614;SDS011;7907;51.368;6.730;2022-07-01T02:33:43;6.80;;;3.03;;
15614;SDS011;7907;51.368;6.730;2022-07-01T02:36:11;4.22;;;2.38;;
15614;SDS011;7907;51.368;6.730;2022-07-01T02:38:38;3.60;;;2.38;;
15614;SDS011;7907;51.368;6.730;2022-07-01T02:41:05;5.38;;;2.92;;
15614;SDS011;7907;51.368;6.730;2022-07-01T02:43:32;4.82;;;2.20;;
15614;SDS011;7907;51.368;6.730;2022-07-01T02:45:59;7.55;;;2.60;;
15614;SDS011;7907;51.368;6.730;2022-07-01T02:48:28;5.40;;;2.78;;
15614;SDS011;7907;51.368;6.730;2022-07-01T02:50:55;5.63;;;2.33;;
15614;SDS011;7907;51.368;6.730;2022-07-01T02:53:22;4.80;;;2.70;;
15614;SDS011;7907;51.368;6.730;2022-07-01T02:55:49;4.32;;;2.60;;
15614;SDS011;7907;51.368;6.730;2022-07-01T02:58:17;6.35;;;2.70;;
15614;SDS011;7907;51.368;6.730;2022-07-01T03:00:46;5.43;;;2.75;;
15614;SDS011;7907;51.368;6.730;2022-07-01T03:03:14;4.93;;;2.60;;
15614;SDS011;7907;51.368;6.730;2022-07-01T03:05:43;4.40;;;2.97;;
15614;SDS011;7907;51.368;6.730;2022-07-01T03:08:12;8.07;;;3.50;;
15614;SDS011;7907;51.368;6.730;2022-07-01T03:10:39;4.75;;;3.13;;
15614;SDS011;7907;51.368;6.730;2022-07-01T03:13:06;5.20;;;3.10;;
15614;SDS011;7907;51.368;6.730;2022-07-01T03:15:33;5.35;;;3.35;;
15614;SDS011;7907;51.368;6.730;2022-07-01T03:18:01;5.27;;;2.83;;
15614;SDS011;7907;51.368;6.730;2022-07-01T03:20:28;6.15;;;3.20;;
15614;SDS011;7907;51.368;6.730;2022-07-01T03:22:56;9.53;;;2.97;;
15614;SDS011;7907;51.368;6.730;2022-07-01T03:25:23;3.78;;;2.80;;
15614;SDS011;7907;51.368;6.730;2022-07-01T03:27:51;4.57;;;3.05;;
15614;SDS011;7907;51.368;6.730;2022-07-01T03:30:18;3.57;;;2.30;;
15614;SDS011;7907;51.368;6.730;2022-07-01T03:32:46;5.70;;;2.53;;
15614;SDS011;7907;51.368;6.730;2022-07-01T03:35:13;5.43;;;2.55;;
15614;SDS011;7907;51.368;6.730;2022-07-01T03:38:07;3.90;;;2.72;;
15614;SDS011;7907;51.368;6.730;2022-07-01T03:40:34;5.43;;;2.42;;
15614;SDS011;7907;51.368;6.730;2022-07-01T03:43:02;6.23;;;2.60;;
15614;SDS011;7907;51.368;6.730;2022-07-01T03:45:29;10.30;;;2.67;;
15614;SDS011;7907;51.368;6.730;2022-07-01T03:47:56;3.72;;;2.55;;
15614;SDS011;7907;51.368;6.730;2022-07-01T03:50:24;5.75;;;2.60;;
15614;SDS011;7907;51.368;6.730;2022-07-01T03:52:52;6.05;;;2.78;;
15614;SDS011;7907;51.368;6.730;2022-07-01T03:55:34;3.20;;;2.50;;
15614;SDS011;7907;51.368;6.730;2022-07-01T03:58:02;4.75;;;2.78;;
15614;SDS011;7907;51.368;6.730;2022-07-01T04:00:29;4.65;;;2.67;;
15614;SDS011;7907;51.368;6.730;2022-07-01T04:02:59;5.43;;;2.33;;
15614;SDS011;7907;51.368;6.730;2022-07-01T04:05:26;3.58;;;2.38;;
15614;SDS011;7907;51.368;6.730;2022-07-01T04:07:54;4.10;;;2.53;;
15614;SDS011;7907;51.368;6.730;2022-07-01T04:10:21;7.55;;;2.28;;
15614;SDS011;7907;51.368;6.730;2022-07-01T04:12:50;3.78;;;2.47;;
15614;SDS011;7907;51.368;6.730;2022-07-01T04:15:17;4.47;;;2.42;;
15614;SDS011;7907;51.368;6.730;2022-07-01T04:17:44;4.30;;;2.25;;
15614;SDS011;7907;51.368;6.730;2022-07-01T04:20:11;3.40;;;2.40;;
15614;SDS011;7907;51.368;6.730;2022-07-01T04:22:39;2.20;;;1.77;;
15614;SDS011;7907;51.368;6.730;2022-07-01T04:25:05;3.50;;;2.25;;
15614;SDS011;7907;51.368;6.730;2022-07-01T04:27:33;2.90;;;2.03;;
15614;SDS011;7907;51.368;6.730;2022-07-01T04:30:02;4.82;;;2.72;;
15614;SDS011;7907;51.368;6.730;2022-07-01T04:32:30;5.50;;;2.63;;
15614;SDS011;7907;51.368;6.730;2022-07-01T04:34:57;3.80;;;2.15;;
15614;SDS011;7907;51.368;6.730;2022-07-01T04:37:24;2.27;;;1.70;;
15614;SDS011;7907;51.368;6.730;2022-07-01T04:39:51;2.33;;;1.52;;
15614;SDS011;7907;51.368;6.730;2022-07-01T04:42:21;6.27;;;1.93;;
15614;SDS011;7907;51.368;6.730;2022-07-01T04:44:47;3.95;;;2.65;;
15614;SDS011;7907;51.368;6.730;2022-07-01T04:47:15;5.28;;;2.00;;
15614;SDS011;7907;51.368;6.730;2022-07-01T04:49:43;3.90;;;2.03;;
15614;SDS011;7907;51.368;6.730;2022-07-01T04:52:16;2.35;;;1.55;;
15614;SDS011;7907;51.368;6.730;2022-07-01T04:54:44;3.40;;;2.22;;
15614;SDS011;7907;51.368;6.730;2022-07-01T04:57:11;2.00;;;1.70;;
15614;SDS011;7907;51.368;6.730;2022-07-01T04:59:40;2.78;;;1.95;;
15614;SDS011;7907;51.368;6.730;2022-07-01T05:02:10;3.57;;;2.00;;
15614;SDS011;7907;51.368;6.730;2022-07-01T05:04:39;3.08;;;1.98;;
15614;SDS011;7907;51.368;6.730;2022-07-01T05:07:06;3.03;;;2.20;;
15614;SDS011;7907;51.368;6.730;2022-07-01T05:09:53;2.73;;;1.90;;
15614;SDS011;7907;51.368;6.730;2022-07-01T05:12:20;8.93;;;2.05;;
15614;SDS011;7907;51.368;6.730;2022-07-01T05:14:48;2.80;;;1.80;;
15614;SDS011;7907;51.368;6.730;2022-07-01T05:17:15;5.20;;;1.95;;
15614;SDS011;7907;51.368;6.730;2022-07-01T05:19:44;3.05;;;2.30;;
15614;SDS011;7907;51.368;6.730;2022-07-01T05:22:29;2.90;;;1.67;;
15614;SDS011;7907;51.368;6.730;2022-07-01T05:24:57;3.33;;;2.00;;
15614;SDS011;7907;51.368;6.730;2022-07-01T05:27:25;3.92;;;2.72;;
15614;SDS011;7907;51.368;6.730;2022-07-01T05:29:55;5.97;;;2.55;;
15614;SDS011;7907;51.368;6.730;2022-07-01T05:32:35;3.80;;;2.20;;
15614;SDS011;7907;51.368;6.730;2022-07-01T05:35:04;3.20;;;2.08;;
15614;SDS011;7907;51.368;6.730;2022-07-01T05:37:32;4.80;;;2.60;;
15614;SDS011;7907;51.368;6.730;2022-07-01T05:39:59;2.15;;;1.95;;
15614;SDS011;7907;51.368;6.730;2022-07-01T05:42:27;5.22;;;1.85;;
15614;SDS011;7907;51.368;6.730;2022-07-01T05:44:55;3.88;;;1.45;;
15614;SDS011;7907;51.368;6.730;2022-07-01T05:47:22;2.22;;;1.88;;
15614;SDS011;7907;51.368;6.730;2022-07-01T05:50:08;2.80;;;1.67;;
15614;SDS011;7907;51.368;6.730;2022-07-01T05:52:51;2.20;;;2.00;;
15614;SDS011;7907;51.368;6.730;2022-07-01T05:55:18;3.55;;;2.33;;
15614;SDS011;7907;51.368;6.730;2022-07-01T05:57:51;2.80;;;2.07;;
15614;SDS011;7907;51.368;6.730;2022-07-01T06:00:26;2.15;;;1.95;;
15614;SDS011;7907;51.368;6.730;2022-07-01T06:09:19;3.60;;;2.15;;
15614;SDS011;7907;51.368;6.730;2022-07-01T06:12:13;2.03;;;1.85;;
15614;SDS011;7907;51.368;6.730;2022-07-01T06:15:27;4.13;;;2.20;;
15614;SDS011;7907;51.368;6.730;2022-07-01T06:36:50;2.78;;;1.65;;
15614;SDS011;7907;51.368;6.730;2022-07-01T06:39:18;1.92;;;1.80;;
15614;SDS011;7907;51.368;6.730;2022-07-01T06:42:13;2.58;;;1.60;;
15614;SDS011;7907;51.368;6.730;2022-07-01T06:53:43;2.22;;;2.00;;
15614;SDS011;7907;51.368;6.730;2022-07-01T06:56:12;2.10;;;1.40;;
15614;SDS011;7907;51.368;6.730;2022-07-01T06:58:42;2.05;;;1.27;;
15614;SDS011;7907;51.368;6.730;2022-07-01T07:04:22;2.03;;;1.67;;
15614;SDS011;7907;51.368;6.730;2022-07-01T07:07:23;2.55;;;2.00;;
15614;SDS011;7907;51.368;6.730;2022-07-01T07:19:23;1.92;;;1.40;;
15614;SDS011;7907;51.368;6.730;2022-07-01T07:25:29;2.10;;;1.70;;
15614;SDS011;7907;51.368;6.730;2022-07-01T07:51:30;2.42;;;1.77;;
15614;SDS011;7907;51.368;6.730;2022-07-01T07:59:21;2.47;;;2.15;;
15614;SDS011;7907;51.368;6.730;2022-07-01T08:42:43;2.22;;;1.88;;
15614;SDS011;7907;51.368;6.730;2022-07-01T08:45:13;0.68;;;0.68;;
15614;SDS011;7907;51.368;6.730;2022-07-01T09:01:24;5.85;;;1.23;;
15614;SDS011;7907;51.368;6.730;2022-07-01T09:06:30;6.75;;;0.90;;
15614;SDS011;7907;51.368;6.730;2022-07-01T09:09:12;0.68;;;0.68;;
15614;SDS011;7907;51.368;6.730;2022-07-01T09:11:49;0.77;;;0.68;;
15614;SDS011;7907;51.368;6.730;2022-07-01T09:14:21;1.02;;;0.70;;
15614;SDS011;7907;51.368;6.730;2022-07-01T09:26:52;1.27;;;0.50;;
15614;SDS011;7907;51.368;6.730;2022-07-01T09:29:49;1.25;;;0.93;;
15614;SDS011;7907;51.368;6.730;2022-07-01T09:32:29;0.80;;;0.80;;
15614;SDS011;7907;51.368;6.730;2022-07-01T09:34:59;0.80;;;0.60;;
15614;SDS011;7907;51.368;6.730;2022-07-01T09:44:05;0.60;;;0.50;;
15614;SDS011;7907;51.368;6.730;2022-07-01T09:46:54;0.57;;;0.47;;
15614;SDS011;7907;51.368;6.730;2022-07-01T09:54:44;2.03;;;0.70;;
15614;SDS011;7907;51.368;6.730;2022-07-01T09:57:36;4.00;;;0.88;;
15614;SDS011;7907;51.368;6.730;2022-07-01T10:10:41;0.67;;;0.60;;
15614;SDS011;7907;51.368;6.730;2022-07-01T10:34:00;1.00;;;0.65;;
15614;SDS011;7907;51.368;6.730;2022-07-01T10:47:25;0.50;;;0.50;;
15614;SDS011;7907;51.368;6.730;2022-07-01T11:03:49;0.67;;;0.57;;
15614;SDS011;7907;51.368;6.730;2022-07-01T11:06:19;1.10;;;0.40;;
15614;SDS011;7907;51.368;6.730;2022-07-01T11:09:02;0.65;;;0.57;;
15614;SDS011;7907;51.368;6.730;2022-07-01T11:12:07;0.30;;;0.30;;
15614;SDS011;7907;51.368;6.730;2022-07-01T11:14:55;0.80;;;0.50;;
15614;SDS011;7907;51.368;6.730;2022-07-01T11:31:06;1.45;;;0.70;;
15614;SDS011;7907;51.368;6.730;2022-07-01T11:33:49;0.80;;;0.80;;
15614;SDS011;7907;51.368;6.730;2022-07-01T11:36:25;2.45;;;0.55;;
15614;SDS011;7907;51.368;6.730;2022-07-01T11:39:21;1.00;;;0.27;;
15614;SDS011;7907;51.368;6.730;2022-07-01T11:45:31;0.28;;;0.28;;
15614;SDS011;7907;51.368;6.730;2022-07-01T11:48:00;1.27;;;0.83;;
15614;SDS011;7907;51.368;6.730;2022-07-01T11:50:52;0.75;;;0.45;;
15614;SDS011;7907;51.368;6.730;2022-07-01T11:53:52;0.10;;;0.10;;
15614;SDS011;7907;51.368;6.730;2022-07-01T11:59:55;0.17;;;0.17;;
15614;SDS011;7907;51.368;6.730;2022-07-01T12:02:23;0.50;;;0.22;;
15614;SDS011;7907;51.368;6.730;2022-07-01T12:07:31;2.17;;;0.55;;
15614;SDS011;7907;51.368;6.730;2022-07-01T12:10:14;0.30;;;0.20;;
15614;SDS011;7907;51.368;6.730;2022-07-01T12:15:41;0.65;;;0.45;;
15614;SDS011;7907;51.368;6.730;2022-07-01T12:18:16;1.65;;;0.80;;
15614;SDS011;7907;51.368;6.730;2022-07-01T12:38:19;1.53;;;1.10;;
15614;SDS011;7907;51.368;6.730;2022-07-01T12:57:35;0.30;;;0.20;;
15614;SDS011;7907;51.368;6.730;2022-07-01T13:00:19;0.55;;;0.40;;
15614;SDS011;7907;51.368;6.730;2022-07-01T13:03:21;0.10;;;0.10;;
15614;SDS011;7907;51.368;6.730;2022-07-01T13:06:14;0.60;;;0.28;;
15614;SDS011;7907;51.368;6.730;2022-07-01T13:12:15;0.40;;;0.37;;
15614;SDS011;7907;51.368;6.730;2022-07-01T13:14:52;0.40;;;0.40;;
15614;SDS011;7907;51.368;6.730;2022-07-01T13:17:34;3.22;;;1.58;;
15614;SDS011;7907;51.368;6.730;2022-07-01T13:23:38;0.10;;;0.10;;
15614;SDS011;7907;51.368;6.730;2022-07-01T13:26:53;0.40;;;0.10;;
15614;SDS011;7907;51.368;6.730;2022-07-01T13:39:06;0.30;;;0.20;;
15614;SDS011;7907;51.368;6.730;2022-07-01T13:41:46;0.60;;;0.50;;
15614;SDS011;7907;51.368;6.730;2022-07-01T13:44:14;2.90;;;0.40;;
15614;SDS011;7907;51.368;6.730;2022-07-01T13:46:44;1.50;;;0.30;;
15614;SDS011;7907;51.368;6.730;2022-07-01T13:49:27;0.40;;;0.20;;
15614;SDS011;7907;51.368;6.730;2022-07-01T14:00:11;0.10;;;0.10;;
15614;SDS011;7907;51.368;6.730;2022-07-01T14:05:21;1.13;;;0.30;;
15614;SDS011;7907;51.368;6.730;2022-07-01T14:07:59;0.43;;;0.43;;
15614;SDS011;7907;51.368;6.730;2022-07-01T14:10:40;1.90;;;0.30;;
15614;SDS011;7907;51.368;6.730;2022-07-01T14:16:48;1.20;;;0.30;;
15614;SDS011;7907;51.368;6.730;2022-07-01T14:19:16;0.40;;;0.30;;
15614;SDS011;7907;51.368;6.730;2022-07-01T14:21:52;0.60;;;0.38;;
15614;SDS011;7907;51.368;6.730;2022-07-01T14:24:24;1.55;;;0.40;;
15614;SDS011;7907;51.368;6.730;2022-07-01T14:26:53;0.28;;;0.28;;
15614;SDS011;7907;51.368;6.730;2022-07-01T14:29:29;0.30;;;0.30;;
15614;SDS011;7907;51.368;6.730;2022-07-01T14:39:32;0.55;;;0.47;;
15614;SDS011;7907;51.368;6.730;2022-07-01T14:42:11;2.30;;;0.60;;
15614;SDS011;7907;51.368;6.730;2022-07-01T14:44:51;1.70;;;0.70;;
15614;SDS011;7907;51.368;6.730;2022-07-01T14:47:19;0.50;;;0.40;;
15614;SDS011;7907;51.368;6.730;2022-07-01T14:49:52;2.30;;;1.67;;
15614;SDS011;7907;51.368;6.730;2022-07-01T14:52:22;1.90;;;0.55;;
15614;SDS011;7907;51.368;6.730;2022-07-01T14:54:54;0.60;;;0.40;;
15614;SDS011;7907;51.368;6.730;2022-07-01T14:57:30;0.40;;;0.30;;
15614;SDS011;7907;51.368;6.730;2022-07-01T15:03:37;0.38;;;0.38;;
15614;SDS011;7907;51.368;6.730;2022-07-01T15:06:06;0.70;;;0.60;;
15614;SDS011;7907;51.368;6.730;2022-07-01T15:22:27;1.90;;;1.13;;
15614;SDS011;7907;51.368;6.730;2022-07-01T15:35:52;0.47;;;0.38;;
15614;SDS011;7907;51.368;6.730;2022-07-01T16:01:12;0.40;;;0.30;;
15614;SDS011;7907;51.368;6.730;2022-07-01T16:03:52;0.25;;;0.25;;
15614;SDS011;7907;51.368;6.730;2022-07-01T16:19:35;1.20;;;0.40;;
15614;SDS011;7907;51.368;6.730;2022-07-01T16:24:41;0.20;;;0.20;;
15614;SDS011;7907;51.368;6.730;2022-07-01T16:27:18;0.32;;;0.17;;
15614;SDS011;7907;51.368;6.730;2022-07-01T16:30:08;0.60;;;0.35;;
15614;SDS011;7907;51.368;6.730;2022-07-01T16:41:59;0.40;;;0.30;;
15614;SDS011;7907;51.368;6.730;2022-07-01T16:45:34;3.20;;;2.22;;
15614;SDS011;7907;51.368;6.730;2022-07-01T16:57:58;0.70;;;0.10;;
15614;SDS011;7907;51.368;6.730;2022-07-01T17:13:56;2.75;;;1.52;;
15614;SDS011;7907;51.368;6.730;2022-07-01T17:16:27;6.65;;;2.67;;
15614;SDS011;7907;51.368;6.730;2022-07-01T17:21:55;7.40;;;2.78;;
15614;SDS011;7907;51.368;6.730;2022-07-01T17:31:21;0.30;;;0.30;;
15614;SDS011;7907;51.368;6.730;2022-07-01T17:33:53;0.80;;;0.35;;
15614;SDS011;7907;51.368;6.730;2022-07-01T17:36:23;0.38;;;0.38;;
15614;SDS011;7907;51.368;6.730;2022-07-01T17:39:12;0.73;;;0.40;;
15614;SDS011;7907;51.368;6.730;2022-07-01T17:41:49;1.50;;;0.38;;
15614;SDS011;7907;51.368;6.730;2022-07-01T18:11:07;3.08;;;1.52;;
15614;SDS011;7907;51.368;6.730;2022-07-01T19:22:50;1.38;;;1.00;;
15614;SDS011;7907;51.368;6.730;2022-07-01T20:08:45;2.08;;;0.60;;
15614;SDS011;7907;51.368;6.730;2022-07-01T20:11:45;1.10;;;0.60;;
